createdAt,value
2022-08-26T00:01:37.709Z,101598.50
2022-08-26T00:04:04.302Z,101595.44
2022-08-26T00:06:32.798Z,101598.97
2022-08-26T00:08:59.838Z,101598.72
2022-08-26T00:11:27.210Z,101593.22
2022-08-26T00:13:55.497Z,101587.59
2022-08-26T00:16:25.080Z,101588.69
2022-08-26T00:18:52.464Z,101591.94
2022-08-26T00:21:19.406Z,101591.69
2022-08-26T00:23:46.208Z,101588.38
2022-08-26T00:26:13.420Z,101596.28
2022-08-26T00:28:40.391Z,101586.19
2022-08-26T00:31:07.280Z,101591.38
2022-08-26T00:33:34.069Z,101597.44
2022-08-26T00:36:01.592Z,101590.66
2022-08-26T00:38:28.997Z,101589.91
2022-08-26T00:40:57.441Z,101602.28
2022-08-26T00:43:26.045Z,101600.00
2022-08-26T00:45:57.362Z,101596.59
2022-08-26T00:48:31.789Z,101594.94
2022-08-26T00:51:04.109Z,101593.47
2022-08-26T00:53:35.657Z,101600.06
2022-08-26T00:56:17.543Z,101592.88
2022-08-26T00:58:45.321Z,101589.38
2022-08-26T01:01:12.235Z,101595.13
2022-08-26T01:03:41.677Z,101600.06
2022-08-26T01:06:13.174Z,101600.28
2022-08-26T01:08:40.489Z,101600.88
2022-08-26T01:11:08.773Z,101598.88
2022-08-26T01:13:36.833Z,101600.22
2022-08-26T01:16:06.111Z,101589.81
2022-08-26T01:18:33.393Z,101583.50
2022-08-26T01:21:06.024Z,101586.75
2022-08-26T01:23:39.765Z,101589.25
2022-08-26T01:26:19.986Z,101588.16
2022-08-26T01:28:51.597Z,101589.25
2022-08-26T01:31:29.924Z,101596.06
2022-08-26T01:34:17.617Z,101588.56
2022-08-26T01:36:49.199Z,101589.75
2022-08-26T01:39:18.305Z,101593.38
2022-08-26T01:41:45.454Z,101603.78
2022-08-26T01:44:18.389Z,101605.72
2022-08-26T01:46:48.789Z,101605.03
2022-08-26T01:49:18.611Z,101604.28
2022-08-26T01:51:47.743Z,101601.00
2022-08-26T01:54:14.966Z,101591.81
2022-08-26T01:56:41.901Z,101596.66
2022-08-26T01:59:12.773Z,101593.59
2022-08-26T02:01:40.411Z,101605.88
2022-08-26T02:04:17.692Z,101609.44
2022-08-26T02:06:45.005Z,101616.59
2022-08-26T02:09:12.513Z,101607.88
2022-08-26T02:11:41.797Z,101613.94
2022-08-26T02:14:22.663Z,101603.81
2022-08-26T02:16:51.813Z,101598.25
2022-08-26T02:19:27.553Z,101607.03
2022-08-26T02:21:53.965Z,101604.28
2022-08-26T02:24:27.403Z,101602.16
2022-08-26T02:26:55.801Z,101596.06
2022-08-26T02:29:24.754Z,101595.69
2022-08-26T02:31:52.933Z,101604.16
2022-08-26T02:34:22.425Z,101597.00
2022-08-26T02:36:49.315Z,101606.31
2022-08-26T02:39:22.105Z,101609.47
2022-08-26T02:41:48.981Z,101606.66
2022-08-26T02:44:15.821Z,101609.63
2022-08-26T02:46:46.898Z,101608.31
2022-08-26T02:49:14.842Z,101610.50
2022-08-26T02:51:41.250Z,101602.00
2022-08-26T02:54:09.737Z,101601.41
2022-08-26T02:56:36.377Z,101595.03
2022-08-26T02:59:02.949Z,101609.22
2022-08-26T03:01:32.726Z,101594.34
2022-08-26T03:04:01.452Z,101598.69
2022-08-26T03:06:27.995Z,101601.69
2022-08-26T03:08:55.906Z,101602.50
2022-08-26T03:11:23.645Z,101600.59
2022-08-26T03:13:51.642Z,101599.28
2022-08-26T03:16:18.733Z,101602.25
2022-08-26T03:18:47.029Z,101598.44
2022-08-26T03:21:19.924Z,101609.75
2022-08-26T03:23:46.863Z,101602.84
2022-08-26T03:26:15.626Z,101606.91
2022-08-26T03:29:01.766Z,101599.50
2022-08-26T03:31:29.560Z,101605.59
2022-08-26T03:33:59.627Z,101601.53
2022-08-26T03:36:26.333Z,101601.84
2022-08-26T03:38:53.591Z,101598.84
2022-08-26T03:41:21.218Z,101589.97
2022-08-26T03:43:48.305Z,101598.94
2022-08-26T03:46:15.012Z,101602.50
2022-08-26T03:48:41.458Z,101598.34
2022-08-26T03:51:18.023Z,101602.16
2022-08-26T03:53:45.649Z,101596.69
2022-08-26T03:56:12.750Z,101606.00
2022-08-26T03:58:39.414Z,101603.47
2022-08-26T04:01:09.382Z,101605.91
2022-08-26T04:03:54.284Z,101603.66
2022-08-26T04:06:20.697Z,101597.09
2022-08-26T04:08:48.259Z,101588.06
2022-08-26T04:11:20.046Z,101596.34
2022-08-26T04:13:47.817Z,101594.44
2022-08-26T04:16:17.509Z,101592.22
2022-08-26T04:18:46.891Z,101590.19
2022-08-26T04:21:15.367Z,101592.94
2022-08-26T04:23:47.605Z,101596.00
2022-08-26T04:26:15.221Z,101595.69
2022-08-26T04:28:41.759Z,101600.66
2022-08-26T04:31:12.430Z,101603.41
2022-08-26T04:33:41.679Z,101600.09
2022-08-26T04:36:08.936Z,101603.31
2022-08-26T04:38:35.616Z,101598.41
2022-08-26T04:41:03.252Z,101597.69
2022-08-26T04:43:32.025Z,101595.94
2022-08-26T04:46:01.736Z,101593.69
2022-08-26T04:48:30.825Z,101589.75
2022-08-26T04:50:58.522Z,101591.78
2022-08-26T04:53:25.952Z,101587.75
2022-08-26T04:55:55.245Z,101595.16
2022-08-26T04:58:24.656Z,101595.97
2022-08-26T05:00:55.028Z,101596.56
2022-08-26T05:03:23.530Z,101590.00
2022-08-26T05:05:50.839Z,101590.00
2022-08-26T05:08:20.061Z,101595.41
2022-08-26T05:10:56.532Z,101596.47
2022-08-26T05:13:26.845Z,101608.84
2022-08-26T05:15:54.474Z,101611.09
2022-08-26T05:18:23.959Z,101617.13
2022-08-26T05:20:54.020Z,101620.53
2022-08-26T05:23:25.179Z,101620.44
2022-08-26T05:25:59.008Z,101624.25
2022-08-26T05:28:29.071Z,101621.19
2022-08-26T05:30:56.477Z,101624.84
2022-08-26T05:33:23.418Z,101626.56
2022-08-26T05:35:49.968Z,101626.84
2022-08-26T05:38:20.051Z,101627.56
2022-08-26T05:40:52.778Z,101634.75
2022-08-26T05:43:20.467Z,101637.50
2022-08-26T05:45:49.729Z,101639.56
2022-08-26T05:48:18.960Z,101637.41
2022-08-26T05:50:51.731Z,101634.75
2022-08-26T05:53:21.326Z,101646.06
2022-08-26T05:55:53.701Z,101651.19
2022-08-26T05:58:21.809Z,101656.09
2022-08-26T06:01:06.743Z,101654.03
2022-08-26T06:03:36.985Z,101650.44
2022-08-26T06:06:09.674Z,101655.34
2022-08-26T06:08:37.722Z,101656.91
2022-08-26T06:11:07.105Z,101657.75
2022-08-26T06:13:34.916Z,101653.34
2022-08-26T06:16:05.024Z,101650.00
2022-08-26T06:18:36.194Z,101660.38
2022-08-26T06:21:11.634Z,101662.31
2022-08-26T06:23:56.834Z,101660.38
2022-08-26T06:26:25.657Z,101664.91
2022-08-26T06:28:52.157Z,101669.09
2022-08-26T06:31:18.676Z,101666.69
2022-08-26T06:33:45.225Z,101674.91
2022-08-26T06:36:23.589Z,101669.53
2022-08-26T06:38:51.126Z,101678.72
2022-08-26T06:41:20.022Z,101670.50
2022-08-26T06:43:47.180Z,101677.91
2022-08-26T06:46:17.115Z,101678.22
2022-08-26T06:48:44.859Z,101662.78
2022-08-26T06:51:16.062Z,101670.06
2022-08-26T06:53:46.758Z,101678.84
2022-08-26T06:56:17.180Z,101677.91
2022-08-26T06:58:43.592Z,101680.50
2022-08-26T07:01:46.379Z,101681.69
2022-08-26T07:04:15.774Z,101688.13
2022-08-26T07:06:48.819Z,101685.03
2022-08-26T07:09:16.725Z,101695.25
2022-08-26T07:11:44.440Z,101698.94
2022-08-26T07:14:12.110Z,101701.09
2022-08-26T07:16:39.752Z,101701.44
2022-08-26T07:19:11.294Z,101707.16
2022-08-26T07:21:41.372Z,101706.66
2022-08-26T07:24:11.172Z,101699.78
2022-08-26T07:26:39.211Z,101714.41
2022-08-26T07:29:09.797Z,101712.75
2022-08-26T07:31:39.469Z,101718.91
2022-08-26T07:34:09.287Z,101716.41
2022-08-26T07:36:36.394Z,101723.78
2022-08-26T07:39:02.904Z,101729.53
2022-08-26T07:43:56.696Z,101724.66
2022-08-26T07:46:30.063Z,101729.78
2022-08-26T07:48:57.599Z,101714.69
2022-08-26T07:51:25.463Z,101728.94
2022-08-26T07:53:52.347Z,101724.66
2022-08-26T07:56:20.747Z,101732.25
2022-08-26T07:58:51.319Z,101736.31
2022-08-26T08:01:18.899Z,101740.47
2022-08-26T08:03:45.423Z,101745.44
2022-08-26T08:06:11.854Z,101740.59
2022-08-26T08:08:40.666Z,101736.44
2022-08-26T08:11:07.373Z,101738.94
2022-08-26T08:13:38.646Z,101737.88
2022-08-26T08:16:05.598Z,101741.19
2022-08-26T08:18:32.343Z,101741.88
2022-08-26T08:21:21.162Z,101737.84
2022-08-26T08:23:48.158Z,101748.06
2022-08-26T08:26:15.281Z,101748.09
2022-08-26T08:28:43.434Z,101746.19
2022-08-26T08:31:56.640Z,101744.41
2022-08-26T08:34:26.332Z,101740.69
2022-08-26T08:36:53.510Z,101748.09
2022-08-26T08:39:20.299Z,101741.06
2022-08-26T08:41:54.093Z,101749.53
2022-08-26T08:47:01.382Z,101752.13
2022-08-26T08:49:30.361Z,101751.28
2022-08-26T08:52:04.307Z,101749.38
2022-08-26T08:54:32.014Z,101742.03
2022-08-26T08:57:12.907Z,101747.69
2022-08-26T09:00:19.286Z,101764.09
2022-08-26T09:03:17.521Z,101763.63
2022-08-26T09:05:48.688Z,101759.53
2022-08-26T09:08:25.053Z,101758.84
2022-08-26T09:10:59.094Z,101756.44
2022-08-26T09:13:27.341Z,101744.94
2022-08-26T09:16:13.718Z,101746.09
2022-08-26T09:18:47.588Z,101741.72
2022-08-26T09:21:17.906Z,101744.19
2022-08-26T09:23:49.177Z,101741.59
2022-08-26T09:26:30.776Z,101742.88
2022-08-26T09:29:03.409Z,101745.84
2022-08-26T09:31:34.064Z,101760.03
2022-08-26T09:34:19.151Z,101770.94
2022-08-26T09:36:49.527Z,101778.94
2022-08-26T09:39:27.721Z,101768.19
2022-08-26T09:42:24.504Z,101755.84
2022-08-26T09:44:54.966Z,101758.72
2022-08-26T09:47:55.908Z,101767.19
2022-08-26T09:50:35.026Z,101759.53
2022-08-26T09:53:28.583Z,101758.00
2022-08-26T09:56:25.492Z,101760.53
2022-08-26T09:58:55.941Z,101761.59
2022-08-26T10:01:35.247Z,101763.00
2022-08-26T10:04:07.309Z,101766.00
2022-08-26T10:06:40.345Z,101762.28
2022-08-26T10:09:13.466Z,101760.88
2022-08-26T10:11:48.078Z,101764.81
2022-08-26T10:14:25.225Z,101759.69
2022-08-26T10:17:02.099Z,101752.53
2022-08-26T10:19:41.616Z,101751.84
2022-08-26T10:22:45.542Z,101751.72
2022-08-26T10:25:25.930Z,101752.16
2022-08-26T10:28:00.660Z,101757.44
2022-08-26T10:30:34.362Z,101755.88
2022-08-26T10:33:06.607Z,101763.34
2022-08-26T10:35:36.934Z,101747.06
2022-08-26T10:38:15.112Z,101748.38
2022-08-26T10:40:59.002Z,101757.78
2022-08-26T10:43:56.244Z,101758.50
2022-08-26T10:46:28.422Z,101753.13
2022-08-26T10:49:12.943Z,101758.34
2022-08-26T10:52:12.045Z,101767.66
2022-08-26T10:54:53.664Z,101759.53
2022-08-26T10:57:50.206Z,101755.97
2022-08-26T11:00:41.076Z,101753.22
2022-08-26T11:03:22.614Z,101756.31
2022-08-26T11:06:36.978Z,101756.88
2022-08-26T11:09:07.062Z,101764.72
2022-08-26T11:11:41.228Z,101760.44
2022-08-26T11:14:30.299Z,101761.00
2022-08-26T11:17:00.035Z,101764.34
2022-08-26T11:19:50.858Z,101765.41
2022-08-26T11:22:36.298Z,101772.72
2022-08-26T11:25:11.530Z,101768.53
2022-08-26T11:27:38.391Z,101776.88
2022-08-26T11:30:19.329Z,101765.91
2022-08-26T11:32:55.320Z,101768.66
2022-08-26T11:35:23.162Z,101769.63
2022-08-26T11:38:20.069Z,101759.94
2022-08-26T11:40:56.221Z,101763.59
2022-08-26T11:43:26.502Z,101759.09
2022-08-26T11:48:30.521Z,101760.22
2022-08-26T11:51:17.489Z,101754.66
2022-08-26T11:53:44.936Z,101749.09
2022-08-26T11:56:28.756Z,101753.84
2022-08-26T11:59:01.042Z,101759.25
2022-08-26T12:01:31.220Z,101751.66
2022-08-26T12:03:59.596Z,101756.31
2022-08-26T12:06:30.497Z,101757.66
2022-08-26T12:09:02.245Z,101750.50
2022-08-26T12:11:35.937Z,101760.63
2022-08-26T12:14:20.554Z,101756.38
2022-08-26T12:16:47.701Z,101762.53
2022-08-26T12:19:33.005Z,101752.13
2022-08-26T12:22:06.386Z,101750.00
2022-08-26T12:24:32.965Z,101753.31
2022-08-26T12:27:22.353Z,101751.16
2022-08-26T12:30:08.377Z,101753.81
2022-08-26T12:32:37.202Z,101755.63
2022-08-26T12:35:21.923Z,101753.81
2022-08-26T12:37:51.701Z,101759.53
2022-08-26T12:40:43.798Z,101757.53
2022-08-26T12:43:13.444Z,101769.28
2022-08-26T12:45:55.567Z,101764.88
2022-08-26T12:48:26.914Z,101768.84
2022-08-26T12:50:54.916Z,101776.13
2022-08-26T12:53:33.141Z,101782.91
2022-08-26T12:56:05.242Z,101780.06
2022-08-26T12:58:33.069Z,101782.63
2022-08-26T13:01:06.314Z,101785.97
2022-08-26T13:03:40.207Z,101783.63
2022-08-26T13:06:20.462Z,101784.78
2022-08-26T13:08:49.555Z,101784.78
2022-08-26T13:11:27.727Z,101776.56
2022-08-26T13:14:07.015Z,101774.66
2022-08-26T13:16:35.387Z,101786.09
2022-08-26T13:19:05.725Z,101776.44
2022-08-26T13:21:53.768Z,101789.31
2022-08-26T13:24:23.181Z,101780.91
2022-08-26T13:26:50.218Z,101767.13
2022-08-26T13:29:17.173Z,101776.13
2022-08-26T13:31:44.925Z,101777.78
2022-08-26T13:34:14.394Z,101775.75
2022-08-26T13:36:45.025Z,101775.41
2022-08-26T13:39:11.889Z,101780.16
2022-08-26T13:41:38.309Z,101775.00
2022-08-26T13:44:05.424Z,101775.09
2022-08-26T13:46:31.902Z,101769.63
2022-08-26T13:48:58.766Z,101771.75
2022-08-26T13:51:26.724Z,101770.94
2022-08-26T13:53:54.216Z,101768.53
2022-08-26T13:56:21.449Z,101765.66
2022-08-26T13:58:47.877Z,101768.66
2022-08-26T14:01:16.140Z,101771.41
2022-08-26T14:03:43.631Z,101771.41
2022-08-26T14:06:10.284Z,101766.16
2022-08-26T14:08:38.462Z,101762.22
2022-08-26T14:11:05.140Z,101769.66
2022-08-26T14:13:31.565Z,101773.13
2022-08-26T14:16:01.188Z,101761.72
2022-08-26T14:18:42.144Z,101761.63
2022-08-26T14:21:13.117Z,101761.72
2022-08-26T14:23:40.078Z,101766.22
2022-08-26T14:26:08.188Z,101769.31
2022-08-26T14:28:35.278Z,101762.88
2022-08-26T14:31:02.930Z,101761.06
2022-08-26T14:33:32.624Z,101765.31
2022-08-26T14:36:19.091Z,101757.19
2022-08-26T14:38:46.678Z,101757.69
2022-08-26T14:41:16.325Z,101749.72
2022-08-26T14:43:48.448Z,101761.25
2022-08-26T14:46:16.042Z,101757.09
2022-08-26T14:48:42.718Z,101762.97
2022-08-26T14:51:09.157Z,101758.91
2022-08-26T14:53:54.309Z,101756.50
2022-08-26T14:56:20.982Z,101747.16
2022-08-26T14:58:47.515Z,101754.44
2022-08-26T15:01:14.974Z,101749.47
2022-08-26T15:03:42.422Z,101752.69
2022-08-26T15:06:10.253Z,101747.78
2022-08-26T15:11:04.309Z,101757.38
2022-08-26T15:13:30.737Z,101753.00
2022-08-26T15:15:57.190Z,101754.16
2022-08-26T15:18:23.662Z,101751.41
2022-08-26T15:20:50.299Z,101757.38
2022-08-26T15:23:16.686Z,101748.69
2022-08-26T15:25:44.496Z,101742.69
2022-08-26T15:28:10.897Z,101742.69
2022-08-26T15:30:37.445Z,101752.06
2022-08-26T15:33:03.978Z,101749.31
2022-08-26T15:35:30.445Z,101749.19
2022-08-26T15:38:02.503Z,101750.91
2022-08-26T15:40:28.926Z,101752.38
2022-08-26T15:43:11.537Z,101747.16
2022-08-26T15:45:41.980Z,101749.38
2022-08-26T15:48:08.385Z,101742.03
2022-08-26T15:50:34.818Z,101746.50
2022-08-26T15:53:01.366Z,101744.03
2022-08-26T15:55:27.750Z,101747.59
2022-08-26T15:57:54.864Z,101739.50
2022-08-26T16:00:21.337Z,101743.00
2022-08-26T16:02:48.254Z,101739.09
2022-08-26T16:05:14.737Z,101732.19
2022-08-26T16:07:41.125Z,101737.84
2022-08-26T16:10:07.945Z,101730.44
2022-08-26T16:12:34.369Z,101731.84
2022-08-26T16:15:00.940Z,101724.69
2022-08-26T16:17:27.497Z,101724.63
2022-08-26T16:19:53.892Z,101726.28
2022-08-26T16:22:20.266Z,101731.66
2022-08-26T16:24:48.624Z,101734.66
2022-08-26T16:27:16.181Z,101724.66
2022-08-26T16:29:42.637Z,101722.00
2022-08-26T16:32:09.097Z,101723.69
2022-08-26T16:34:36.091Z,101721.66
2022-08-26T16:37:02.574Z,101722.28
2022-08-26T16:39:28.988Z,101719.06
2022-08-26T16:41:55.552Z,101712.88
2022-08-26T16:44:22.156Z,101712.75
2022-08-26T16:46:48.687Z,101720.75
2022-08-26T16:49:15.194Z,101723.84
2022-08-26T16:51:41.673Z,101721.09
2022-08-26T16:54:08.718Z,101721.09
2022-08-26T16:56:36.349Z,101719.44
2022-08-26T16:59:05.707Z,101721.94
2022-08-26T17:01:32.480Z,101721.19
2022-08-26T17:03:58.922Z,101732.41
2022-08-26T17:06:25.353Z,101736.25
2022-08-26T17:08:52.970Z,101735.41
2022-08-26T17:11:19.638Z,101737.06
2022-08-26T17:13:46.102Z,101740.38
2022-08-26T17:16:12.969Z,101749.66
2022-08-26T17:18:39.426Z,101744.50
2022-08-26T17:21:09.325Z,101746.97
2022-08-26T17:23:36.766Z,101742.72
2022-08-26T17:26:04.030Z,101744.03
2022-08-26T17:28:30.478Z,101744.25
2022-08-26T17:30:58.303Z,101753.69
2022-08-26T17:33:25.656Z,101746.31
2022-08-26T17:35:52.944Z,101747.88
2022-08-26T17:38:19.455Z,101753.25
2022-08-26T17:40:45.846Z,101761.94
2022-08-26T17:43:12.703Z,101764.44
2022-08-26T17:45:42.026Z,101759.53
2022-08-26T17:48:09.532Z,101761.34
2022-08-26T17:50:42.283Z,101760.41
2022-08-26T17:53:18.486Z,101765.88
2022-08-26T17:55:46.883Z,101763.84
2022-08-26T17:58:14.797Z,101764.44
2022-08-26T18:00:47.013Z,101767.53
2022-08-26T18:03:13.671Z,101774.66
2022-08-26T18:05:42.372Z,101772.41
2022-08-26T18:08:09.894Z,101773.94
2022-08-26T18:10:36.321Z,101776.47
2022-08-26T18:13:02.854Z,101779.41
2022-08-26T18:15:29.329Z,101779.06
2022-08-26T18:17:55.745Z,101776.56
2022-08-26T18:20:22.298Z,101776.22
2022-08-26T18:22:48.849Z,101778.13
2022-08-26T18:25:18.906Z,101768.84
2022-08-26T18:27:45.329Z,101776.22
2022-08-26T18:30:20.571Z,101782.53
2022-08-26T18:32:48.255Z,101785.25
2022-08-26T18:35:14.890Z,101788.97
2022-08-26T18:37:42.490Z,101790.03
2022-08-26T18:40:12.483Z,101789.31
2022-08-26T18:42:39.146Z,101792.78
2022-08-26T18:45:07.754Z,101792.47
2022-08-26T18:47:34.494Z,101789.38
2022-08-26T18:50:02.468Z,101791.53
2022-08-26T18:52:28.897Z,101794.75
2022-08-26T18:54:55.446Z,101788.19
2022-08-26T18:57:21.857Z,101797.72
2022-08-26T18:59:48.273Z,101793.66
2022-08-26T19:02:14.806Z,101802.81
2022-08-26T19:04:41.773Z,101808.06
2022-08-26T19:07:08.687Z,101819.00
2022-08-26T19:09:35.427Z,101818.16
2022-08-26T19:12:04.091Z,101815.06
2022-08-26T19:14:31.790Z,101815.78
2022-08-26T19:16:59.038Z,101818.25
2022-08-26T19:19:25.559Z,101811.84
2022-08-26T19:21:52.917Z,101812.06
2022-08-26T19:24:20.036Z,101814.78
2022-08-26T19:26:49.990Z,101812.91
2022-08-26T19:31:49.292Z,101818.38
2022-08-26T19:34:18.316Z,101824.69
2022-08-26T19:36:48.290Z,101831.19
2022-08-26T19:39:15.056Z,101819.91
2022-08-26T19:41:41.463Z,101826.69
2022-08-26T19:44:11.364Z,101831.19
2022-08-26T19:49:05.590Z,101828.91
2022-08-26T19:51:34.050Z,101826.78
2022-08-26T19:54:01.123Z,101830.22
2022-08-26T19:56:28.451Z,101825.56
2022-08-26T19:58:55.729Z,101826.41
2022-08-26T20:01:22.446Z,101831.03
2022-08-26T20:03:49.347Z,101835.47
2022-08-26T20:06:16.725Z,101835.47
2022-08-26T20:08:44.171Z,101832.94
2022-08-26T20:11:14.446Z,101824.38
2022-08-26T20:13:41.913Z,101820.22
2022-08-26T20:16:10.218Z,101819.41
2022-08-26T20:18:59.844Z,101828.25
2022-08-26T20:21:27.500Z,101824.31
2022-08-26T20:24:00.529Z,101827.31
2022-08-26T20:26:28.878Z,101828.38
2022-08-26T20:28:56.650Z,101816.63
2022-08-26T20:31:24.207Z,101817.66
2022-08-26T20:33:51.629Z,101823.13
2022-08-26T20:36:20.302Z,101822.09
2022-08-26T20:38:47.647Z,101824.19
2022-08-26T20:41:15.150Z,101830.13
2022-08-26T20:43:42.748Z,101835.38
2022-08-26T20:46:16.916Z,101821.72
2022-08-26T20:48:45.545Z,101827.38
2022-08-26T20:51:12.205Z,101823.94
2022-08-26T20:53:38.906Z,101817.41
2022-08-26T20:56:08.709Z,101814.66
2022-08-26T20:58:35.437Z,101817.03
2022-08-26T21:01:07.267Z,101808.25
2022-08-26T21:03:35.055Z,101810.13
2022-08-26T21:06:01.789Z,101814.75
2022-08-26T21:08:28.291Z,101819.38
2022-08-26T21:10:54.710Z,101819.38
2022-08-26T21:13:22.662Z,101815.22
2022-08-26T21:15:49.085Z,101817.09
2022-08-26T21:18:15.555Z,101815.44
2022-08-26T21:20:41.982Z,101821.16
2022-08-26T21:23:08.480Z,101819.00
2022-08-26T21:25:34.878Z,101814.38
2022-08-26T21:28:01.299Z,101813.34
2022-08-26T21:30:27.841Z,101815.44
2022-08-26T21:32:54.257Z,101819.25
2022-08-26T21:35:21.085Z,101819.25
2022-08-26T21:37:47.474Z,101815.69
2022-08-26T21:40:14.220Z,101811.94
2022-08-26T21:42:40.721Z,101808.00
2022-08-26T21:45:07.568Z,101814.75
2022-08-26T21:47:34.022Z,101805.13
2022-08-26T21:50:00.596Z,101813.69
2022-08-26T21:52:27.270Z,101819.16
2022-08-26T21:55:01.664Z,101811.41
2022-08-26T21:57:28.994Z,101813.78
2022-08-26T21:59:56.322Z,101816.66
2022-08-26T22:02:23.111Z,101816.44
2022-08-26T22:04:49.697Z,101817.25
2022-08-26T22:07:19.042Z,101818.91
2022-08-26T22:09:46.286Z,101814.28
2022-08-26T22:12:18.187Z,101822.13
2022-08-26T22:14:45.400Z,101814.97
2022-08-26T22:17:11.974Z,101815.22
2022-08-26T22:19:39.101Z,101821.50
2022-08-26T22:22:14.383Z,101827.81
2022-08-26T22:24:43.127Z,101826.38
2022-08-26T22:27:11.789Z,101812.19
2022-08-26T22:29:38.472Z,101832.38
2022-08-26T22:32:05.008Z,101831.78
2022-08-26T22:34:32.098Z,101828.03
2022-08-26T22:36:59.032Z,101827.22
2022-08-26T22:39:26.087Z,101827.84
2022-08-26T22:41:54.280Z,101829.25
2022-08-26T22:44:22.021Z,101825.47
2022-08-26T22:46:49.988Z,101819.41
2022-08-26T22:49:17.134Z,101817.94
2022-08-26T22:51:45.260Z,101815.69
2022-08-26T22:54:12.599Z,101816.75
2022-08-26T22:56:39.876Z,101809.63
2022-08-26T22:59:07.729Z,101802.75
2022-08-26T23:01:40.093Z,101809.25
2022-08-26T23:04:07.795Z,101804.25
2022-08-26T23:06:36.912Z,101800.91
2022-08-26T23:09:05.276Z,101799.84
2022-08-26T23:11:31.880Z,101802.81
2022-08-26T23:13:58.288Z,101802.44
2022-08-26T23:16:27.944Z,101792.78
2022-08-26T23:19:02.742Z,101790.91
2022-08-26T23:21:29.148Z,101796.13
2022-08-26T23:23:56.241Z,101793.16
2022-08-26T23:26:22.671Z,101801.16
2022-08-26T23:28:49.073Z,101795.44
2022-08-26T23:31:15.786Z,101792.72
2022-08-26T23:34:00.825Z,101791.75
2022-08-26T23:36:29.603Z,101789.22
2022-08-26T23:38:57.286Z,101787.31
2022-08-26T23:41:24.171Z,101783.19
2022-08-26T23:43:51.693Z,101779.25
2022-08-26T23:46:19.401Z,101776.56
2022-08-26T23:48:46.832Z,101782.03
2022-08-26T23:51:32.096Z,101787.09
2022-08-26T23:53:58.566Z,101777.94
2022-08-26T23:56:25.576Z,101782.31
2022-08-26T23:58:53.663Z,101785.88
